sensor_id;sensor_type;location;lat;lon;timestamp;pressure;altitude;pressure_sealevel;temperature;humidity
81230;BME280;70701;44.452;18.652;2023-09-08T00:01:15;99545.25;;;16.96;72.10
81230;BME280;70701;44.452;18.652;2023-09-08T00:03:41;99537.13;;;16.89;72.14
81230;BME280;70701;44.452;18.652;2023-09-08T00:06:06;99539.44;;;16.81;72.01
81230;BME280;70701;44.452;18.652;2023-09-08T00:08:32;99533.97;;;16.78;71.87
81230;BME280;70701;44.452;18.652;2023-09-08T00:10:57;99525.19;;;16.66;72.07
81230;BME280;70701;44.452;18.652;2023-09-08T00:13:23;99536.44;;;16.66;72.02
81230;BME280;70701;44.452;18.652;2023-09-08T00:15:49;99535.81;;;16.53;72.48
81230;BME280;70701;44.452;18.652;2023-09-08T00:18:14;99524.38;;;16.47;72.25
81230;BME280;70701;44.452;18.652;2023-09-08T00:20:40;99538.13;;;16.45;72.89
81230;BME280;70701;44.452;18.652;2023-09-08T00:23:07;99534.25;;;16.43;72.26
81230;BME280;70701;44.452;18.652;2023-09-08T00:25:33;99528.63;;;16.43;71.96
81230;BME280;70701;44.452;18.652;2023-09-08T00:28:00;99523.75;;;16.43;71.52
81230;BME280;70701;44.452;18.652;2023-09-08T00:30:26;99539.09;;;16.61;71.17
81230;BME280;70701;44.452;18.652;2023-09-08T00:32:51;99537.25;;;16.58;71.76
81230;BME280;70701;44.452;18.652;2023-09-08T00:35:17;99527.34;;;16.44;71.86
81230;BME280;70701;44.452;18.652;2023-09-08T00:37:42;99536.75;;;16.50;71.49
81230;BME280;70701;44.452;18.652;2023-09-08T00:40:09;99521.03;;;16.21;72.43
81230;BME280;70701;44.452;18.652;2023-09-08T00:42:35;99540.31;;;16.41;71.74
81230;BME280;70701;44.452;18.652;2023-09-08T00:45:02;99519.84;;;16.31;71.22
81230;BME280;70701;44.452;18.652;2023-09-08T00:47:28;99531.41;;;16.33;71.65
81230;BME280;70701;44.452;18.652;2023-09-08T00:49:54;99530.41;;;16.18;71.89
81230;BME280;70701;44.452;18.652;2023-09-08T00:52:19;99527.47;;;15.81;73.77
81230;BME280;70701;44.452;18.652;2023-09-08T00:54:45;99524.41;;;15.98;73.40
81230;BME280;70701;44.452;18.652;2023-09-08T00:57:11;99525.31;;;15.94;72.77
81230;BME280;70701;44.452;18.652;2023-09-08T00:59:37;99527.25;;;16.07;72.73
81230;BME280;70701;44.452;18.652;2023-09-08T01:02:03;99526.19;;;16.13;72.65
81230;BME280;70701;44.452;18.652;2023-09-08T01:04:29;99494.34;;;16.17;71.89
81230;BME280;70701;44.452;18.652;2023-09-08T01:06:56;99534.16;;;16.15;72.11
81230;BME280;70701;44.452;18.652;2023-09-08T01:09:23;99527.53;;;16.00;72.38
81230;BME280;70701;44.452;18.652;2023-09-08T01:11:50;99524.28;;;16.01;72.53
81230;BME280;70701;44.452;18.652;2023-09-08T01:14:19;99525.91;;;15.89;73.08
81230;BME280;70701;44.452;18.652;2023-09-08T01:16:45;99522.44;;;15.76;73.94
81230;BME280;70701;44.452;18.652;2023-09-08T01:19:13;99523.88;;;15.81;73.07
81230;BME280;70701;44.452;18.652;2023-09-08T01:26:40;99503.06;;;15.47;73.94
81230;BME280;70701;44.452;18.652;2023-09-08T01:29:09;99516.22;;;15.59;73.35
81230;BME280;70701;44.452;18.652;2023-09-08T01:31:36;99515.25;;;15.75;72.97
81230;BME280;70701;44.452;18.652;2023-09-08T01:34:03;99523.41;;;15.60;73.68
81230;BME280;70701;44.452;18.652;2023-09-08T01:36:34;99526.03;;;15.77;73.52
81230;BME280;70701;44.452;18.652;2023-09-08T01:39:01;99517.63;;;15.77;74.18
81230;BME280;70701;44.452;18.652;2023-09-08T01:41:26;99526.28;;;16.01;74.10
81230;BME280;70701;44.452;18.652;2023-09-08T01:43:52;99519.16;;;16.09;73.88
81230;BME280;70701;44.452;18.652;2023-09-08T01:46:18;99530.38;;;16.09;73.53
81230;BME280;70701;44.452;18.652;2023-09-08T01:48:43;99529.03;;;15.91;74.19
81230;BME280;70701;44.452;18.652;2023-09-08T01:51:09;99532.06;;;16.06;73.82
81230;BME280;70701;44.452;18.652;2023-09-08T01:53:35;99521.19;;;16.18;72.54
81230;BME280;70701;44.452;18.652;2023-09-08T01:56:01;99526.41;;;15.88;72.87
81230;BME280;70701;44.452;18.652;2023-09-08T01:58:26;99521.19;;;15.77;72.23
81230;BME280;70701;44.452;18.652;2023-09-08T02:00:52;99522.66;;;15.69;72.89
81230;BME280;70701;44.452;18.652;2023-09-08T02:03:18;99519.94;;;15.78;72.39
81230;BME280;70701;44.452;18.652;2023-09-08T02:05:44;99517.38;;;15.71;72.82
81230;BME280;70701;44.452;18.652;2023-09-08T02:08:10;99532.44;;;15.77;71.99
81230;BME280;70701;44.452;18.652;2023-09-08T02:10:39;99515.00;;;15.60;71.99
81230;BME280;70701;44.452;18.652;2023-09-08T02:13:05;99532.50;;;15.64;72.49
81230;BME280;70701;44.452;18.652;2023-09-08T02:15:30;99531.91;;;15.69;72.05
81230;BME280;70701;44.452;18.652;2023-09-08T02:17:56;99504.44;;;15.42;72.54
81230;BME280;70701;44.452;18.652;2023-09-08T02:20:22;99532.81;;;15.44;72.66
81230;BME280;70701;44.452;18.652;2023-09-08T02:22:53;99530.81;;;15.23;73.36
81230;BME280;70701;44.452;18.652;2023-09-08T02:25:18;99507.91;;;15.02;73.24
81230;BME280;70701;44.452;18.652;2023-09-08T02:27:44;99535.78;;;15.19;73.60
81230;BME280;70701;44.452;18.652;2023-09-08T02:30:10;99527.94;;;15.13;73.32
81230;BME280;70701;44.452;18.652;2023-09-08T02:32:36;99531.13;;;15.03;73.72
81230;BME280;70701;44.452;18.652;2023-09-08T02:35:02;99530.47;;;14.99;73.62
81230;BME280;70701;44.452;18.652;2023-09-08T02:37:27;99534.13;;;15.08;73.73
81230;BME280;70701;44.452;18.652;2023-09-08T02:39:53;99531.59;;;15.23;72.97
81230;BME280;70701;44.452;18.652;2023-09-08T02:42:19;99534.22;;;15.18;72.43
81230;BME280;70701;44.452;18.652;2023-09-08T02:44:44;99526.28;;;15.03;72.41
81230;BME280;70701;44.452;18.652;2023-09-08T02:47:10;99527.56;;;15.02;72.69
81230;BME280;70701;44.452;18.652;2023-09-08T02:49:37;99531.78;;;15.07;72.38
81230;BME280;70701;44.452;18.652;2023-09-08T02:52:03;99530.44;;;15.11;72.46
81230;BME280;70701;44.452;18.652;2023-09-08T02:54:29;99532.19;;;15.18;71.68
81230;BME280;70701;44.452;18.652;2023-09-08T02:56:56;99532.47;;;15.11;71.20
81230;BME280;70701;44.452;18.652;2023-09-08T02:59:22;99538.44;;;15.00;72.37
81230;BME280;70701;44.452;18.652;2023-09-08T03:01:47;99503.47;;;14.57;72.93
81230;BME280;70701;44.452;18.652;2023-09-08T03:04:13;99540.22;;;14.72;72.98
81230;BME280;70701;44.452;18.652;2023-09-08T03:06:39;99535.88;;;14.58;74.05
81230;BME280;70701;44.452;18.652;2023-09-08T03:09:05;99520.63;;;14.46;73.74
81230;BME280;70701;44.452;18.652;2023-09-08T03:11:30;99521.94;;;14.67;73.88
81230;BME280;70701;44.452;18.652;2023-09-08T03:13:56;99520.94;;;14.74;73.90
81230;BME280;70701;44.452;18.652;2023-09-08T03:16:21;99520.19;;;14.61;74.17
81230;BME280;70701;44.452;18.652;2023-09-08T03:18:47;99507.25;;;14.63;74.28
81230;BME280;70701;44.452;18.652;2023-09-08T03:21:14;99516.88;;;14.75;74.51
81230;BME280;70701;44.452;18.652;2023-09-08T03:23:41;99515.88;;;14.56;74.67
81230;BME280;70701;44.452;18.652;2023-09-08T03:26:07;99528.00;;;14.66;74.42
81230;BME280;70701;44.452;18.652;2023-09-08T03:28:34;99474.69;;;14.31;73.85
81230;BME280;70701;44.452;18.652;2023-09-08T03:31:01;99528.59;;;14.48;75.61
81230;BME280;70701;44.452;18.652;2023-09-08T03:33:29;99526.13;;;14.37;75.10
81230;BME280;70701;44.452;18.652;2023-09-08T03:35:55;99532.28;;;14.45;75.07
81230;BME280;70701;44.452;18.652;2023-09-08T03:38:21;99517.06;;;14.33;75.43
81230;BME280;70701;44.452;18.652;2023-09-08T03:40:47;99529.47;;;14.45;74.96
81230;BME280;70701;44.452;18.652;2023-09-08T03:43:13;99534.06;;;14.51;75.02
81230;BME280;70701;44.452;18.652;2023-09-08T03:45:39;99522.09;;;14.38;75.76
81230;BME280;70701;44.452;18.652;2023-09-08T03:48:05;99537.22;;;14.41;75.55
81230;BME280;70701;44.452;18.652;2023-09-08T03:50:31;99536.91;;;14.38;75.61
81230;BME280;70701;44.452;18.652;2023-09-08T03:52:57;99535.19;;;14.41;75.35
81230;BME280;70701;44.452;18.652;2023-09-08T03:55:23;99536.91;;;14.38;75.14
81230;BME280;70701;44.452;18.652;2023-09-08T03:57:49;99523.38;;;13.98;76.35
81230;BME280;70701;44.452;18.652;2023-09-08T04:00:14;99538.47;;;13.88;77.35
81230;BME280;70701;44.452;18.652;2023-09-08T04:02:49;99549.56;;;13.92;77.63
81230;BME280;70701;44.452;18.652;2023-09-08T04:05:18;99496.91;;;13.87;77.29
81230;BME280;70701;44.452;18.652;2023-09-08T04:07:45;99539.16;;;14.18;77.36
81230;BME280;70701;44.452;18.652;2023-09-08T04:10:11;99542.84;;;14.28;77.08
81230;BME280;70701;44.452;18.652;2023-09-08T04:12:39;99547.78;;;14.11;78.23
81230;BME280;70701;44.452;18.652;2023-09-08T04:15:05;99539.50;;;13.94;78.14
81230;BME280;70701;44.452;18.652;2023-09-08T04:17:30;99532.97;;;13.72;79.84
81230;BME280;70701;44.452;18.652;2023-09-08T04:19:57;99526.69;;;13.68;79.43
81230;BME280;70701;44.452;18.652;2023-09-08T04:22:22;99541.72;;;13.74;79.11
81230;BME280;70701;44.452;18.652;2023-09-08T04:24:48;99524.69;;;13.68;78.55
81230;BME280;70701;44.452;18.652;2023-09-08T04:27:13;99543.41;;;13.71;78.31
81230;BME280;70701;44.452;18.652;2023-09-08T04:29:39;99549.19;;;13.64;78.61
81230;BME280;70701;44.452;18.652;2023-09-08T04:32:05;99529.47;;;13.55;77.87
81230;BME280;70701;44.452;18.652;2023-09-08T04:34:39;99550.25;;;13.70;78.08
81230;BME280;70701;44.452;18.652;2023-09-08T04:37:05;99550.88;;;13.61;78.76
81230;BME280;70701;44.452;18.652;2023-09-08T04:39:32;99547.31;;;13.61;78.46
81230;BME280;70701;44.452;18.652;2023-09-08T04:41:58;99529.00;;;13.44;80.10
81230;BME280;70701;44.452;18.652;2023-09-08T04:44:24;99534.09;;;13.61;78.58
81230;BME280;70701;44.452;18.652;2023-09-08T04:46:51;99546.50;;;13.60;79.18
81230;BME280;70701;44.452;18.652;2023-09-08T04:49:17;99551.22;;;13.64;78.91
81230;BME280;70701;44.452;18.652;2023-09-08T04:51:43;99537.69;;;13.75;78.53
81230;BME280;70701;44.452;18.652;2023-09-08T04:54:10;99562.13;;;14.00;78.66
81230;BME280;70701;44.452;18.652;2023-09-08T04:56:36;99545.84;;;13.69;80.41
81230;BME280;70701;44.452;18.652;2023-09-08T04:59:02;99561.13;;;13.94;79.94
81230;BME280;70701;44.452;18.652;2023-09-08T05:01:28;99556.97;;;14.11;79.92
81230;BME280;70701;44.452;18.652;2023-09-08T05:03:56;99557.19;;;14.43;75.44
81230;BME280;70701;44.452;18.652;2023-09-08T05:06:21;99527.72;;;14.25;75.20
81230;BME280;70701;44.452;18.652;2023-09-08T05:08:47;99546.31;;;14.32;75.37
81230;BME280;70701;44.452;18.652;2023-09-08T05:11:12;99545.53;;;14.31;74.92
81230;BME280;70701;44.452;18.652;2023-09-08T05:13:38;99522.44;;;14.27;74.33
81230;BME280;70701;44.452;18.652;2023-09-08T05:16:04;99560.53;;;14.50;74.45
81230;BME280;70701;44.452;18.652;2023-09-08T05:18:39;99564.00;;;14.54;74.18
81230;BME280;70701;44.452;18.652;2023-09-08T05:21:05;99560.06;;;14.52;74.31
81230;BME280;70701;44.452;18.652;2023-09-08T05:23:30;99553.16;;;14.44;74.50
81230;BME280;70701;44.452;18.652;2023-09-08T05:25:56;99568.59;;;14.48;74.23
81230;BME280;70701;44.452;18.652;2023-09-08T05:28:22;99558.06;;;14.52;74.63
81230;BME280;70701;44.452;18.652;2023-09-08T05:30:50;99568.03;;;14.53;74.50
81230;BME280;70701;44.452;18.652;2023-09-08T05:33:17;99569.50;;;14.58;75.48
81230;BME280;70701;44.452;18.652;2023-09-08T05:35:44;99572.31;;;14.45;75.00
81230;BME280;70701;44.452;18.652;2023-09-08T05:38:10;99559.53;;;14.44;75.75
81230;BME280;70701;44.452;18.652;2023-09-08T05:40:36;99562.66;;;14.72;75.18
81230;BME280;70701;44.452;18.652;2023-09-08T05:43:03;99566.81;;;14.67;75.18
81230;BME280;70701;44.452;18.652;2023-09-08T05:45:28;99561.06;;;14.71;74.95
81230;BME280;70701;44.452;18.652;2023-09-08T05:47:55;99568.56;;;14.87;75.26
81230;BME280;70701;44.452;18.652;2023-09-08T05:50:21;99559.44;;;14.95;75.01
81230;BME280;70701;44.452;18.652;2023-09-08T05:52:48;99562.66;;;15.07;75.17
81230;BME280;70701;44.452;18.652;2023-09-08T05:55:14;99568.22;;;15.20;75.41
81230;BME280;70701;44.452;18.652;2023-09-08T05:57:39;99565.66;;;15.34;74.72
81230;BME280;70701;44.452;18.652;2023-09-08T06:00:07;99569.94;;;15.39;74.56
81230;BME280;70701;44.452;18.652;2023-09-08T06:02:38;99568.16;;;15.32;75.23
81230;BME280;70701;44.452;18.652;2023-09-08T06:05:06;99573.97;;;15.38;75.49
81230;BME280;70701;44.452;18.652;2023-09-08T06:07:33;99577.94;;;15.50;75.32
81230;BME280;70701;44.452;18.652;2023-09-08T06:09:59;99562.13;;;15.65;74.23
81230;BME280;70701;44.452;18.652;2023-09-08T06:12:25;99569.13;;;15.61;74.59
81230;BME280;70701;44.452;18.652;2023-09-08T06:14:50;99568.88;;;15.90;73.94
81230;BME280;70701;44.452;18.652;2023-09-08T06:17:16;99580.28;;;15.96;74.26
81230;BME280;70701;44.452;18.652;2023-09-08T06:19:42;99578.78;;;16.13;73.65
81230;BME280;70701;44.452;18.652;2023-09-08T06:22:07;99581.97;;;16.24;73.52
81230;BME280;70701;44.452;18.652;2023-09-08T06:24:33;99574.41;;;16.52;73.20
81230;BME280;70701;44.452;18.652;2023-09-08T06:27:01;99577.56;;;16.64;73.76
81230;BME280;70701;44.452;18.652;2023-09-08T06:29:27;99572.88;;;16.70;72.74
81230;BME280;70701;44.452;18.652;2023-09-08T06:31:52;99578.63;;;16.57;72.77
81230;BME280;70701;44.452;18.652;2023-09-08T06:34:18;99572.16;;;16.38;73.62
81230;BME280;70701;44.452;18.652;2023-09-08T06:36:47;99585.78;;;16.49;73.16
81230;BME280;70701;44.452;18.652;2023-09-08T06:39:13;99584.06;;;16.51;73.33
81230;BME280;70701;44.452;18.652;2023-09-08T06:41:38;99582.72;;;16.65;73.68
81230;BME280;70701;44.452;18.652;2023-09-08T06:44:05;99575.13;;;16.84;72.71
81230;BME280;70701;44.452;18.652;2023-09-08T06:46:33;99562.59;;;16.76;72.64
81230;BME280;70701;44.452;18.652;2023-09-08T06:48:58;99579.03;;;17.05;72.02
81230;BME280;70701;44.452;18.652;2023-09-08T06:51:24;99577.66;;;17.10;72.03
81230;BME280;70701;44.452;18.652;2023-09-08T06:53:57;99575.63;;;17.29;71.88
81230;BME280;70701;44.452;18.652;2023-09-08T06:56:26;99577.16;;;17.21;72.46
81230;BME280;70701;44.452;18.652;2023-09-08T06:58:52;99587.66;;;17.29;71.91
81230;BME280;70701;44.452;18.652;2023-09-08T07:01:19;99587.66;;;17.39;71.56
81230;BME280;70701;44.452;18.652;2023-09-08T07:03:44;99583.72;;;17.45;71.45
81230;BME280;70701;44.452;18.652;2023-09-08T07:06:11;99575.22;;;17.73;69.76
81230;BME280;70701;44.452;18.652;2023-09-08T07:08:37;99576.47;;;17.81;69.83
81230;BME280;70701;44.452;18.652;2023-09-08T07:11:03;99565.97;;;17.82;69.41
81230;BME280;70701;44.452;18.652;2023-09-08T07:13:28;99572.97;;;18.05;69.22
81230;BME280;70701;44.452;18.652;2023-09-08T07:15:57;99572.94;;;18.14;68.69
81230;BME280;70701;44.452;18.652;2023-09-08T07:18:23;99561.94;;;18.25;68.61
81230;BME280;70701;44.452;18.652;2023-09-08T07:20:48;99553.47;;;18.25;69.29
81230;BME280;70701;44.452;18.652;2023-09-08T07:23:18;99577.69;;;18.41;69.12
81230;BME280;70701;44.452;18.652;2023-09-08T07:25:48;99568.50;;;18.56;69.76
81230;BME280;70701;44.452;18.652;2023-09-08T07:28:15;99561.75;;;18.62;69.13
81230;BME280;70701;44.452;18.652;2023-09-08T07:30:42;99557.69;;;18.78;68.57
81230;BME280;70701;44.452;18.652;2023-09-08T07:33:08;99566.66;;;19.01;67.69
81230;BME280;70701;44.452;18.652;2023-09-08T07:35:38;99538.31;;;18.95;67.39
81230;BME280;70701;44.452;18.652;2023-09-08T07:38:06;99563.41;;;19.17;66.89
81230;BME280;70701;44.452;18.652;2023-09-08T07:40:39;99561.75;;;19.11;67.04
81230;BME280;70701;44.452;18.652;2023-09-08T07:43:07;99565.94;;;19.15;67.11
81230;BME280;70701;44.452;18.652;2023-09-08T07:45:32;99568.41;;;19.37;65.93
81230;BME280;70701;44.452;18.652;2023-09-08T07:47:58;99558.75;;;19.29;66.56
81230;BME280;70701;44.452;18.652;2023-09-08T07:50:25;99569.22;;;19.53;65.51
81230;BME280;70701;44.452;18.652;2023-09-08T07:52:53;99570.19;;;19.65;65.40
81230;BME280;70701;44.452;18.652;2023-09-08T07:55:20;99560.38;;;19.75;65.74
81230;BME280;70701;44.452;18.652;2023-09-08T07:57:49;99562.59;;;19.86;65.45
81230;BME280;70701;44.452;18.652;2023-09-08T08:00:16;99559.97;;;19.97;64.82
81230;BME280;70701;44.452;18.652;2023-09-08T08:02:49;99556.53;;;20.08;64.43
81230;BME280;70701;44.452;18.652;2023-09-08T08:05:15;99554.97;;;20.22;63.42
81230;BME280;70701;44.452;18.652;2023-09-08T08:07:42;99548.69;;;20.32;62.96
81230;BME280;70701;44.452;18.652;2023-09-08T08:10:10;99560.38;;;20.40;62.43
81230;BME280;70701;44.452;18.652;2023-09-08T08:12:37;99551.97;;;20.46;62.21
81230;BME280;70701;44.452;18.652;2023-09-08T08:15:03;99557.13;;;20.47;62.82
81230;BME280;70701;44.452;18.652;2023-09-08T08:17:30;99551.81;;;20.55;62.49
81230;BME280;70701;44.452;18.652;2023-09-08T08:19:57;99552.19;;;20.42;60.45
81230;BME280;70701;44.452;18.652;2023-09-08T08:22:32;99553.09;;;20.69;61.17
81230;BME280;70701;44.452;18.652;2023-09-08T08:24:58;99558.25;;;20.70;61.43
81230;BME280;70701;44.452;18.652;2023-09-08T08:27:24;99553.66;;;20.93;61.07
81230;BME280;70701;44.452;18.652;2023-09-08T08:29:50;99539.50;;;20.73;61.07
81230;BME280;70701;44.452;18.652;2023-09-08T08:32:17;99555.72;;;20.93;60.55
81230;BME280;70701;44.452;18.652;2023-09-08T08:34:42;99555.78;;;20.99;60.14
81230;BME280;70701;44.452;18.652;2023-09-08T08:37:10;99548.19;;;21.10;59.86
81230;BME280;70701;44.452;18.652;2023-09-08T08:39:36;99547.75;;;21.17;58.90
81230;BME280;70701;44.452;18.652;2023-09-08T08:42:09;99549.59;;;21.21;59.28
81230;BME280;70701;44.452;18.652;2023-09-08T08:44:37;99551.16;;;21.22;58.70
81230;BME280;70701;44.452;18.652;2023-09-08T08:47:06;99544.91;;;21.38;59.32
81230;BME280;70701;44.452;18.652;2023-09-08T08:49:32;99543.75;;;21.50;58.83
81230;BME280;70701;44.452;18.652;2023-09-08T08:51:59;99541.28;;;21.64;58.83
81230;BME280;70701;44.452;18.652;2023-09-08T08:54:25;99538.44;;;21.64;57.76
81230;BME280;70701;44.452;18.652;2023-09-08T08:56:52;99541.66;;;21.77;56.66
81230;BME280;70701;44.452;18.652;2023-09-08T08:59:18;99536.03;;;21.83;58.45
81230;BME280;70701;44.452;18.652;2023-09-08T09:01:44;99531.53;;;21.97;57.83
81230;BME280;70701;44.452;18.652;2023-09-08T09:04:10;99534.91;;;22.01;58.04
81230;BME280;70701;44.452;18.652;2023-09-08T09:06:37;99536.47;;;22.02;57.50
81230;BME280;70701;44.452;18.652;2023-09-08T09:09:04;99530.00;;;22.01;57.27
81230;BME280;70701;44.452;18.652;2023-09-08T09:11:30;99528.81;;;22.13;56.71
81230;BME280;70701;44.452;18.652;2023-09-08T09:13:58;99505.06;;;22.11;56.89
81230;BME280;70701;44.452;18.652;2023-09-08T09:16:23;99536.13;;;22.26;57.54
81230;BME280;70701;44.452;18.652;2023-09-08T09:18:57;99525.94;;;22.45;57.06
81230;BME280;70701;44.452;18.652;2023-09-08T09:21:23;99528.06;;;22.56;55.84
81230;BME280;70701;44.452;18.652;2023-09-08T09:23:49;99528.38;;;22.64;54.99
81230;BME280;70701;44.452;18.652;2023-09-08T09:26:25;99532.28;;;22.72;54.93
81230;BME280;70701;44.452;18.652;2023-09-08T09:28:51;99527.38;;;22.78;54.83
81230;BME280;70701;44.452;18.652;2023-09-08T09:31:23;99507.50;;;22.78;54.25
81230;BME280;70701;44.452;18.652;2023-09-08T09:34:01;99515.81;;;22.93;53.99
81230;BME280;70701;44.452;18.652;2023-09-08T09:36:30;99500.59;;;22.96;53.23
81230;BME280;70701;44.452;18.652;2023-09-08T09:38:59;99514.78;;;22.90;53.69
81230;BME280;70701;44.452;18.652;2023-09-08T09:41:28;99500.03;;;22.75;53.82
81230;BME280;70701;44.452;18.652;2023-09-08T09:43:58;99487.38;;;22.76;53.73
81230;BME280;70701;44.452;18.652;2023-09-08T09:46:30;99495.44;;;23.00;53.09
81230;BME280;70701;44.452;18.652;2023-09-08T09:48:55;99509.19;;;23.07;52.71
81230;BME280;70701;44.452;18.652;2023-09-08T09:51:24;99499.06;;;23.01;52.49
81230;BME280;70701;44.452;18.652;2023-09-08T09:53:50;99495.72;;;23.02;52.62
81230;BME280;70701;44.452;18.652;2023-09-08T09:56:19;99496.81;;;23.11;52.48
81230;BME280;70701;44.452;18.652;2023-09-08T09:58:46;99491.94;;;23.22;51.95
81230;BME280;70701;44.452;18.652;2023-09-08T10:01:13;99446.69;;;23.13;51.56
81230;BME280;70701;44.452;18.652;2023-09-08T10:03:39;99483.44;;;23.45;51.65
81230;BME280;70701;44.452;18.652;2023-09-08T10:06:06;99478.25;;;23.32;51.32
81230;BME280;70701;44.452;18.652;2023-09-08T10:08:35;99476.19;;;23.38;51.97
81230;BME280;70701;44.452;18.652;2023-09-08T10:11:06;99480.06;;;23.46;51.52
81230;BME280;70701;44.452;18.652;2023-09-08T10:13:38;99473.84;;;23.48;48.03
81230;BME280;70701;44.452;18.652;2023-09-08T10:16:05;99471.00;;;23.59;48.08
81230;BME280;70701;44.452;18.652;2023-09-08T10:18:35;99479.03;;;23.78;47.37
81230;BME280;70701;44.452;18.652;2023-09-08T10:21:03;99465.06;;;23.63;47.94
81230;BME280;70701;44.452;18.652;2023-09-08T10:23:37;99464.31;;;23.85;46.79
81230;BME280;70701;44.452;18.652;2023-09-08T10:26:05;99466.13;;;23.99;46.21
81230;BME280;70701;44.452;18.652;2023-09-08T10:28:33;99456.50;;;24.08;45.65
81230;BME280;70701;44.452;18.652;2023-09-08T10:31:00;99470.72;;;24.08;45.51
81230;BME280;70701;44.452;18.652;2023-09-08T10:33:26;99461.19;;;24.05;45.01
81230;BME280;70701;44.452;18.652;2023-09-08T10:35:53;99459.13;;;24.00;45.28
81230;BME280;70701;44.452;18.652;2023-09-08T10:38:28;99450.06;;;24.02;45.34
81230;BME280;70701;44.452;18.652;2023-09-08T10:43:56;99452.38;;;24.15;45.00
81230;BME280;70701;44.452;18.652;2023-09-08T10:46:23;99421.88;;;24.04;45.08
81230;BME280;70701;44.452;18.652;2023-09-08T10:48:53;99446.94;;;24.17;44.35
81230;BME280;70701;44.452;18.652;2023-09-08T10:51:20;99446.66;;;24.26;44.58
81230;BME280;70701;44.452;18.652;2023-09-08T10:53:48;99441.88;;;24.51;43.42
81230;BME280;70701;44.452;18.652;2023-09-08T10:56:15;99405.50;;;24.33;42.94
81230;BME280;70701;44.452;18.652;2023-09-08T10:58:42;99438.53;;;24.47;43.31
81230;BME280;70701;44.452;18.652;2023-09-08T11:01:19;99434.16;;;24.52;43.82
81230;BME280;70701;44.452;18.652;2023-09-08T11:03:48;99430.78;;;24.48;43.96
81230;BME280;70701;44.452;18.652;2023-09-08T11:06:16;99438.78;;;24.60;43.64
81230;BME280;70701;44.452;18.652;2023-09-08T11:08:44;99434.75;;;24.86;42.86
81230;BME280;70701;44.452;18.652;2023-09-08T11:11:14;99414.53;;;24.90;41.07
81230;BME280;70701;44.452;18.652;2023-09-08T11:13:40;99424.31;;;25.00;39.84
81230;BME280;70701;44.452;18.652;2023-09-08T11:16:06;99427.81;;;24.81;40.80
81230;BME280;70701;44.452;18.652;2023-09-08T11:18:33;99417.22;;;24.76;41.36
81230;BME280;70701;44.452;18.652;2023-09-08T11:21:01;99425.25;;;24.78;41.70
81230;BME280;70701;44.452;18.652;2023-09-08T11:23:28;99425.47;;;24.80;41.13
81230;BME280;70701;44.452;18.652;2023-09-08T11:25:53;99416.13;;;24.79;40.88
81230;BME280;70701;44.452;18.652;2023-09-08T11:28:23;99422.03;;;24.93;40.07
81230;BME280;70701;44.452;18.652;2023-09-08T11:30:50;99408.88;;;24.84;40.09
81230;BME280;70701;44.452;18.652;2023-09-08T11:33:17;99413.97;;;24.97;39.44
81230;BME280;70701;44.452;18.652;2023-09-08T11:35:45;99410.28;;;25.08;39.57
81230;BME280;70701;44.452;18.652;2023-09-08T11:38:11;99412.59;;;25.09;39.55
81230;BME280;70701;44.452;18.652;2023-09-08T11:40:38;99416.66;;;25.25;39.54
81230;BME280;70701;44.452;18.652;2023-09-08T11:43:04;99398.50;;;25.22;39.08
81230;BME280;70701;44.452;18.652;2023-09-08T11:45:34;99407.59;;;25.27;39.33
81230;BME280;70701;44.452;18.652;2023-09-08T11:47:59;99399.94;;;25.40;38.87
81230;BME280;70701;44.452;18.652;2023-09-08T11:50:25;99403.81;;;25.43;39.05
81230;BME280;70701;44.452;18.652;2023-09-08T11:52:53;99407.53;;;25.32;40.15
81230;BME280;70701;44.452;18.652;2023-09-08T11:55:20;99394.97;;;25.47;39.94
81230;BME280;70701;44.452;18.652;2023-09-08T11:57:52;99391.53;;;25.54;40.05
81230;BME280;70701;44.452;18.652;2023-09-08T12:00:23;99395.53;;;25.39;40.51
81230;BME280;70701;44.452;18.652;2023-09-08T12:02:51;99389.25;;;25.47;39.56
81230;BME280;70701;44.452;18.652;2023-09-08T12:05:27;99385.63;;;25.46;39.69
81230;BME280;70701;44.452;18.652;2023-09-08T12:07:55;99382.56;;;25.44;39.93
81230;BME280;70701;44.452;18.652;2023-09-08T12:10:22;99396.94;;;25.57;39.37
81230;BME280;70701;44.452;18.652;2023-09-08T12:12:49;99379.84;;;25.57;38.92
81230;BME280;70701;44.452;18.652;2023-09-08T12:15:37;99378.09;;;25.49;39.13
81230;BME280;70701;44.452;18.652;2023-09-08T12:18:05;99359.50;;;25.42;38.85
81230;BME280;70701;44.452;18.652;2023-09-08T12:20:32;99365.38;;;25.19;39.35
81230;BME280;70701;44.452;18.652;2023-09-08T12:23:03;99365.78;;;25.35;39.78
81230;BME280;70701;44.452;18.652;2023-09-08T12:25:29;99370.91;;;25.42;39.37
81230;BME280;70701;44.452;18.652;2023-09-08T12:27:59;99351.72;;;25.67;38.07
81230;BME280;70701;44.452;18.652;2023-09-08T12:30:25;99363.81;;;25.79;38.62
81230;BME280;70701;44.452;18.652;2023-09-08T12:32:59;99352.28;;;25.90;38.15
81230;BME280;70701;44.452;18.652;2023-09-08T12:35:26;99346.19;;;25.50;38.57
81230;BME280;70701;44.452;18.652;2023-09-08T12:38:03;99346.25;;;25.45;38.41
81230;BME280;70701;44.452;18.652;2023-09-08T12:40:37;99344.22;;;25.39;38.33
81230;BME280;70701;44.452;18.652;2023-09-08T12:43:04;99343.63;;;25.16;39.05
81230;BME280;70701;44.452;18.652;2023-09-08T12:45:30;99346.47;;;25.16;39.15
81230;BME280;70701;44.452;18.652;2023-09-08T12:48:00;99345.53;;;25.38;38.57
81230;BME280;70701;44.452;18.652;2023-09-08T12:50:30;99323.03;;;25.35;38.46
81230;BME280;70701;44.452;18.652;2023-09-08T12:52:55;99337.94;;;25.47;38.18
81230;BME280;70701;44.452;18.652;2023-09-08T12:55:22;99334.91;;;25.64;38.43
81230;BME280;70701;44.452;18.652;2023-09-08T12:57:48;99343.69;;;25.41;37.74